createdAt,value
2023-02-06T00:02:38.874Z,67.90
2023-02-06T00:07:46.251Z,67.99
2023-02-06T00:12:53.769Z,68.07
2023-02-06T00:18:01.319Z,68.15
2023-02-06T00:23:09.045Z,68.21
2023-02-06T00:28:16.806Z,68.31
2023-02-06T00:33:24.686Z,68.41
2023-02-06T00:38:32.665Z,68.52
2023-02-06T00:43:39.971Z,68.56
2023-02-06T00:48:47.248Z,68.57
2023-02-06T00:53:54.661Z,68.56
2023-02-06T00:59:02.063Z,68.68
2023-02-06T01:04:09.769Z,68.82
2023-02-06T01:09:18.730Z,68.88
2023-02-06T01:14:26.124Z,68.86
2023-02-06T01:19:33.527Z,68.93
2023-02-06T01:24:41.570Z,69.00
2023-02-06T01:29:51.081Z,69.04
2023-02-06T01:34:58.650Z,69.06
2023-02-06T01:40:06.695Z,69.07
2023-02-06T01:45:39.970Z,69.09
2023-02-06T01:50:52.156Z,69.18
2023-02-06T01:56:01.350Z,69.28
2023-02-06T02:01:10.604Z,69.40
2023-02-06T02:06:24.381Z,69.49
2023-02-06T02:11:35.863Z,69.54
2023-02-06T02:16:51.087Z,69.58
2023-02-06T02:22:24.323Z,69.68
2023-02-06T02:27:50.568Z,69.75
2023-02-06T02:33:29.517Z,69.82
2023-02-06T02:38:45.809Z,69.86
2023-02-06T02:43:58.894Z,69.97
2023-02-06T02:49:11.239Z,70.03
2023-02-06T02:54:19.320Z,70.15
2023-02-06T02:59:36.362Z,70.22
2023-02-06T03:04:53.038Z,70.30
2023-02-06T03:10:10.714Z,70.35
2023-02-06T03:15:28.010Z,70.32
2023-02-06T03:20:38.840Z,70.25
2023-02-06T03:25:49.610Z,70.23
2023-02-06T03:31:01.318Z,70.17
2023-02-06T03:36:11.538Z,70.09
2023-02-06T03:41:22.046Z,70.06
2023-02-06T03:46:30.732Z,69.98
2023-02-06T03:51:42.736Z,69.97
2023-02-06T03:56:54.623Z,69.90
2023-02-06T04:02:04.589Z,69.73
2023-02-06T04:07:17.875Z,69.92
2023-02-06T04:12:26.394Z,69.87
2023-02-06T04:17:49.658Z,69.76
2023-02-06T04:22:57.490Z,69.65
2023-02-06T04:28:05.388Z,69.56
2023-02-06T04:33:12.733Z,69.50
2023-02-06T04:38:20.003Z,69.39
2023-02-06T04:43:27.544Z,69.33
2023-02-06T04:48:35.010Z,69.23
2023-02-06T04:53:42.336Z,69.18
2023-02-06T04:58:49.678Z,69.06
2023-02-06T05:03:57.052Z,68.93
2023-02-06T05:09:04.963Z,68.71
2023-02-06T05:14:12.443Z,68.48
2023-02-06T05:19:20.287Z,68.24
2023-02-06T05:24:27.889Z,68.05
2023-02-06T05:29:35.279Z,67.95
2023-02-06T05:34:42.770Z,67.89
2023-02-06T05:39:50.239Z,67.87
2023-02-06T05:44:58.016Z,67.84
2023-02-06T05:50:05.439Z,67.77
2023-02-06T05:55:14.740Z,67.72
2023-02-06T06:00:23.088Z,67.66
2023-02-06T06:05:30.562Z,67.69
2023-02-06T06:10:37.973Z,67.77
2023-02-06T06:15:46.268Z,67.91
2023-02-06T06:20:53.824Z,68.06
2023-02-06T06:26:01.213Z,68.13
2023-02-06T06:31:12.270Z,68.17
2023-02-06T06:36:19.806Z,68.18
2023-02-06T06:41:27.405Z,68.18
2023-02-06T06:46:35.044Z,68.15
2023-02-06T06:51:42.528Z,68.10
2023-02-06T06:56:50.068Z,68.05
2023-02-06T07:01:57.402Z,68.01
2023-02-06T07:07:04.831Z,67.98
2023-02-06T07:12:12.712Z,68.03
2023-02-06T07:17:20.304Z,68.13
2023-02-06T07:22:28.094Z,68.21
2023-02-06T07:27:36.007Z,68.32
2023-02-06T07:32:43.667Z,68.45
2023-02-06T07:37:51.205Z,68.64
2023-02-06T07:42:58.686Z,68.85
2023-02-06T07:48:09.925Z,69.13
2023-02-06T07:53:17.287Z,69.38
2023-02-06T07:58:24.816Z,69.61
2023-02-06T08:03:32.524Z,69.75
2023-02-06T08:08:39.700Z,69.81
2023-02-06T08:13:47.861Z,69.88
2023-02-06T08:18:55.403Z,69.93
2023-02-06T08:24:04.093Z,69.92
2023-02-06T08:29:12.378Z,69.90
2023-02-06T08:34:19.974Z,69.85
2023-02-06T08:39:27.605Z,69.74
2023-02-06T08:44:35.050Z,69.64
2023-02-06T08:49:43.201Z,69.56
2023-02-06T08:54:51.440Z,69.46
2023-02-06T08:59:59.334Z,69.45
2023-02-06T09:05:07.138Z,69.33
2023-02-06T09:10:26.813Z,69.15
2023-02-06T09:15:35.876Z,69.05
2023-02-06T09:20:43.573Z,68.97
2023-02-06T09:25:51.247Z,68.86
2023-02-06T09:30:58.745Z,68.74
2023-02-06T09:36:11.533Z,68.61
2023-02-06T09:41:31.473Z,68.18
2023-02-06T09:46:46.886Z,67.56
2023-02-06T09:52:24.303Z,66.74
2023-02-06T09:57:43.302Z,66.14
2023-02-06T10:03:06.526Z,65.96
2023-02-06T10:08:24.412Z,65.88
2023-02-06T10:13:35.547Z,65.66
2023-02-06T10:18:47.493Z,65.35
2023-02-06T10:24:00.726Z,64.88
2023-02-06T10:29:16.567Z,64.39
2023-02-06T10:34:43.930Z,63.85
2023-02-06T10:40:15.142Z,63.74
2023-02-06T10:45:34.930Z,62.75
2023-02-06T10:50:49.709Z,61.51
2023-02-06T10:56:01.378Z,60.88
2023-02-06T11:01:24.984Z,60.47
2023-02-06T11:06:34.552Z,58.27
2023-02-06T11:11:43.784Z,57.16
2023-02-06T11:16:51.340Z,57.60
2023-02-06T11:22:10.874Z,58.13
2023-02-06T11:27:21.734Z,58.86
2023-02-06T11:32:38.617Z,59.66
2023-02-06T11:37:46.141Z,60.33
2023-02-06T11:42:55.543Z,60.87
2023-02-06T11:48:03.488Z,61.14
2023-02-06T11:53:18.518Z,61.30
2023-02-06T11:58:27.590Z,61.48
2023-02-06T12:03:38.684Z,61.71
2023-02-06T12:08:52.507Z,62.12
2023-02-06T12:14:05.527Z,62.20
2023-02-06T12:19:19.184Z,62.92
2023-02-06T12:24:31.547Z,61.59
2023-02-06T12:29:43.861Z,60.67
2023-02-06T12:34:57.795Z,60.42
2023-02-06T12:40:05.890Z,60.06
2023-02-06T12:45:24.915Z,58.95
2023-02-06T12:50:35.413Z,58.92
2023-02-06T12:55:49.845Z,59.31
2023-02-06T13:01:31.653Z,59.99
2023-02-06T13:06:50.160Z,60.41
2023-02-06T13:12:08.536Z,60.92
2023-02-06T13:17:21.596Z,61.41
2023-02-06T13:22:50.707Z,61.44
2023-02-06T13:27:59.921Z,61.76
2023-02-06T13:33:17.098Z,61.97
2023-02-06T13:38:38.608Z,62.05
2023-02-06T13:43:49.981Z,62.18
2023-02-06T13:49:26.229Z,62.22
2023-02-06T13:54:57.591Z,62.32
2023-02-06T14:00:12.273Z,64.14
2023-02-06T14:05:25.317Z,64.11
2023-02-06T14:11:29.857Z,62.51
2023-02-06T14:16:50.624Z,60.64
2023-02-06T14:22:06.843Z,58.65
2023-02-06T14:27:30.793Z,57.85
2023-02-06T14:32:48.442Z,58.11
2023-02-06T14:38:22.358Z,58.54
2023-02-06T14:43:34.534Z,59.00
2023-02-06T14:48:50.240Z,59.51
2023-02-06T14:54:00.760Z,59.90
2023-02-06T14:59:21.571Z,60.41
2023-02-06T15:04:32.330Z,60.84
2023-02-06T15:09:44.538Z,61.29
2023-02-06T15:14:57.845Z,61.67
2023-02-06T15:20:25.370Z,62.91
2023-02-06T15:25:42.404Z,64.13
2023-02-06T15:30:55.034Z,63.92
2023-02-06T15:36:04.953Z,63.31
2023-02-06T15:41:14.899Z,62.83
2023-02-06T15:46:22.619Z,62.42
2023-02-06T15:51:32.142Z,62.05
2023-02-06T15:56:42.995Z,61.79
2023-02-06T16:01:51.861Z,61.57
2023-02-06T16:07:12.996Z,61.42
2023-02-06T16:12:21.957Z,61.33
2023-02-06T16:17:36.233Z,61.27
2023-02-06T16:22:44.354Z,61.29
2023-02-06T16:27:53.400Z,61.27
2023-02-06T16:33:11.497Z,61.28
2023-02-06T16:38:19.298Z,61.32
2023-02-06T16:43:28.563Z,61.43
2023-02-06T16:48:36.049Z,61.54
2023-02-06T16:53:45.288Z,61.66
2023-02-06T16:58:53.332Z,61.83
2023-02-06T17:04:01.112Z,62.08
2023-02-06T17:09:11.494Z,62.25
2023-02-06T17:14:19.355Z,62.34
2023-02-06T17:19:27.581Z,62.44
2023-02-06T17:24:35.363Z,62.56
2023-02-06T17:29:43.646Z,62.70
2023-02-06T17:34:54.881Z,62.78
2023-02-06T17:40:02.660Z,62.90
2023-02-06T17:45:11.676Z,63.03
2023-02-06T17:50:20.216Z,63.18
2023-02-06T17:55:28.850Z,63.33
2023-02-06T18:00:36.770Z,63.49
2023-02-06T18:05:44.781Z,63.58
2023-02-06T18:10:52.829Z,63.69
2023-02-06T18:16:00.983Z,63.77
2023-02-06T18:21:08.879Z,63.86
2023-02-06T18:26:16.748Z,63.94
2023-02-06T18:31:30.070Z,64.04
2023-02-06T18:36:38.450Z,64.13
2023-02-06T18:42:04.272Z,64.23
2023-02-06T18:47:13.165Z,64.30
2023-02-06T18:52:20.570Z,64.37
2023-02-06T18:57:28.058Z,64.45
2023-02-06T19:02:36.180Z,64.56
2023-02-06T19:07:43.784Z,64.65
2023-02-06T19:12:51.401Z,64.74
2023-02-06T19:17:59.791Z,64.83
2023-02-06T19:23:07.218Z,64.94
2023-02-06T19:28:14.598Z,65.04
2023-02-06T19:33:22.116Z,65.12
2023-02-06T19:38:29.814Z,65.20
2023-02-06T19:43:37.668Z,65.27
2023-02-06T19:48:46.450Z,65.35
2023-02-06T19:53:55.536Z,65.40
2023-02-06T19:59:04.753Z,65.50
2023-02-06T20:04:14.130Z,65.62
2023-02-06T20:09:22.706Z,65.70
2023-02-06T20:14:35.634Z,65.79
2023-02-06T20:19:43.604Z,65.88
2023-02-06T20:24:51.595Z,66.01
2023-02-06T20:30:00.249Z,66.13
2023-02-06T20:35:08.543Z,66.25
2023-02-06T20:40:17.323Z,66.33
2023-02-06T20:45:25.326Z,66.41
2023-02-06T20:50:32.670Z,66.49
2023-02-06T20:55:44.633Z,66.57
2023-02-06T21:00:52.254Z,66.72
2023-02-06T21:06:03.096Z,66.84
2023-02-06T21:11:11.271Z,66.96
2023-02-06T21:16:18.797Z,67.09
2023-02-06T21:21:27.216Z,67.22
2023-02-06T21:26:34.943Z,67.30
2023-02-06T21:31:42.757Z,67.40
2023-02-06T21:36:50.454Z,67.51
2023-02-06T21:42:00.830Z,67.63
2023-02-06T21:47:10.260Z,67.72
2023-02-06T21:52:17.710Z,67.86
2023-02-06T21:57:25.308Z,67.96
2023-02-06T22:02:32.976Z,68.08
2023-02-06T22:07:41.035Z,68.20
2023-02-06T22:12:51.722Z,68.26
2023-02-06T22:17:59.576Z,68.37
2023-02-06T22:23:08.651Z,68.45
2023-02-06T22:28:16.284Z,68.58
2023-02-06T22:33:25.012Z,68.70
2023-02-06T22:38:32.974Z,68.80
2023-02-06T22:43:41.127Z,68.89
2023-02-06T22:48:49.126Z,68.95
2023-02-06T22:53:56.730Z,69.03
2023-02-06T22:59:06.222Z,69.11
2023-02-06T23:04:16.671Z,69.18
2023-02-06T23:09:27.150Z,69.22
2023-02-06T23:14:35.212Z,69.32
2023-02-06T23:19:42.957Z,69.40
2023-02-06T23:24:53.548Z,69.49
2023-02-06T23:30:01.792Z,69.56
2023-02-06T23:35:10.353Z,69.70
2023-02-06T23:40:17.416Z,69.78
2023-02-06T23:45:24.983Z,69.84
2023-02-06T23:50:32.671Z,69.93
2023-02-06T23:55:42.254Z,70.04
